sensor_id;sensor_type;location;lat;lon;timestamp;P1;durP1;ratioP1;P2;durP2;ratioP2
78820;SDS011;68171;13.882;99.692;2023-07-20T00:00:39;14.30;;;5.43;;
78820;SDS011;68171;13.882;99.692;2023-07-20T00:01:51;12.03;;;5.97;;
78820;SDS011;68171;13.882;99.692;2023-07-20T00:03:12;16.63;;;6.15;;
78820;SDS011;68171;13.882;99.692;2023-07-20T00:04:26;17.95;;;6.60;;
78820;SDS011;68171;13.882;99.692;2023-07-20T00:05:35;11.07;;;6.10;;
78820;SDS011;68171;13.882;99.692;2023-07-20T00:06:44;13.90;;;5.95;;
78820;SDS011;68171;13.882;99.692;2023-07-20T00:07:56;13.45;;;6.43;;
78820;SDS011;68171;13.882;99.692;2023-07-20T00:09:05;10.48;;;6.07;;
78820;SDS011;68171;13.882;99.692;2023-07-20T00:10:10;16.23;;;6.68;;
78820;SDS011;68171;13.882;99.692;2023-07-20T00:11:17;16.30;;;5.88;;
78820;SDS011;68171;13.882;99.692;2023-07-20T00:12:41;11.57;;;4.47;;
78820;SDS011;68171;13.882;99.692;2023-07-20T00:13:54;6.00;;;3.53;;
78820;SDS011;68171;13.882;99.692;2023-07-20T00:15:00;7.72;;;3.20;;
78820;SDS011;68171;13.882;99.692;2023-07-20T00:16:13;9.02;;;2.95;;
78820;SDS011;68171;13.882;99.692;2023-07-20T00:17:24;9.15;;;3.13;;
78820;SDS011;68171;13.882;99.692;2023-07-20T00:18:38;6.00;;;2.78;;
78820;SDS011;68171;13.882;99.692;2023-07-20T00:19:49;6.80;;;3.30;;
78820;SDS011;68171;13.882;99.692;2023-07-20T00:21:01;9.65;;;3.30;;
78820;SDS011;68171;13.882;99.692;2023-07-20T00:22:07;7.85;;;2.90;;
78820;SDS011;68171;13.882;99.692;2023-07-20T00:23:31;7.03;;;2.50;;
78820;SDS011;68171;13.882;99.692;2023-07-20T00:24:48;6.00;;;2.47;;
78820;SDS011;68171;13.882;99.692;2023-07-20T00:25:59;6.23;;;2.67;;
78820;SDS011;68171;13.882;99.692;2023-07-20T00:27:13;8.88;;;2.97;;
78820;SDS011;68171;13.882;99.692;2023-07-20T00:28:20;5.95;;;2.40;;
78820;SDS011;68171;13.882;99.692;2023-07-20T00:29:30;6.13;;;2.78;;
78820;SDS011;68171;13.882;99.692;2023-07-20T00:30:44;4.78;;;2.60;;
78820;SDS011;68171;13.882;99.692;2023-07-20T00:31:58;5.13;;;2.47;;
78820;SDS011;68171;13.882;99.692;2023-07-20T00:33:22;5.32;;;2.38;;
78820;SDS011;68171;13.882;99.692;2023-07-20T00:34:34;9.82;;;2.80;;
78820;SDS011;68171;13.882;99.692;2023-07-20T00:35:51;8.38;;;2.88;;
78820;SDS011;68171;13.882;99.692;2023-07-20T00:36:56;5.68;;;2.70;;
78820;SDS011;68171;13.882;99.692;2023-07-20T00:38:13;5.60;;;2.47;;
78820;SDS011;68171;13.882;99.692;2023-07-20T00:39:21;5.90;;;2.67;;
78820;SDS011;68171;13.882;99.692;2023-07-20T00:40:38;7.45;;;2.63;;
78820;SDS011;68171;13.882;99.692;2023-07-20T00:41:48;5.47;;;2.58;;
78820;SDS011;68171;13.882;99.692;2023-07-20T00:43:20;5.93;;;2.80;;
78820;SDS011;68171;13.882;99.692;2023-07-20T00:44:56;10.65;;;2.83;;
78820;SDS011;68171;13.882;99.692;2023-07-20T00:46:06;5.38;;;2.42;;
78820;SDS011;68171;13.882;99.692;2023-07-20T00:47:16;6.60;;;2.75;;
78820;SDS011;68171;13.882;99.692;2023-07-20T00:48:24;8.68;;;3.03;;
78820;SDS011;68171;13.882;99.692;2023-07-20T00:49:31;8.82;;;2.75;;
78820;SDS011;68171;13.882;99.692;2023-07-20T00:50:41;5.93;;;2.90;;
78820;SDS011;68171;13.882;99.692;2023-07-20T00:51:56;10.00;;;2.80;;
78820;SDS011;68171;13.882;99.692;2023-07-20T00:53:04;6.38;;;2.97;;
78820;SDS011;68171;13.882;99.692;2023-07-20T00:54:11;8.75;;;3.22;;
78820;SDS011;68171;13.882;99.692;2023-07-20T00:55:19;6.85;;;2.83;;
78820;SDS011;68171;13.882;99.692;2023-07-20T00:56:27;7.90;;;3.03;;
78820;SDS011;68171;13.882;99.692;2023-07-20T00:57:41;7.30;;;3.80;;
78820;SDS011;68171;13.882;99.692;2023-07-20T00:58:52;7.55;;;3.60;;
78820;SDS011;68171;13.882;99.692;2023-07-20T00:59:59;12.25;;;6.03;;
78820;SDS011;68171;13.882;99.692;2023-07-20T01:01:04;9.85;;;5.18;;
78820;SDS011;68171;13.882;99.692;2023-07-20T01:02:12;16.37;;;5.20;;
78820;SDS011;68171;13.882;99.692;2023-07-20T01:03:18;11.18;;;5.03;;
78820;SDS011;68171;13.882;99.692;2023-07-20T01:04:32;10.15;;;5.35;;
78820;SDS011;68171;13.882;99.692;2023-07-20T01:05:40;9.18;;;4.47;;
78820;SDS011;68171;13.882;99.692;2023-07-20T01:06:52;9.10;;;4.38;;
78820;SDS011;68171;13.882;99.692;2023-07-20T01:08:06;6.97;;;3.45;;
78820;SDS011;68171;13.882;99.692;2023-07-20T01:09:26;7.20;;;3.35;;
78820;SDS011;68171;13.882;99.692;2023-07-20T01:10:45;8.38;;;3.45;;
78820;SDS011;68171;13.882;99.692;2023-07-20T01:11:59;7.65;;;3.42;;
78820;SDS011;68171;13.882;99.692;2023-07-20T01:13:09;6.20;;;2.65;;
78820;SDS011;68171;13.882;99.692;2023-07-20T01:14:28;10.13;;;3.60;;
78820;SDS011;68171;13.882;99.692;2023-07-20T01:15:57;9.57;;;4.22;;
78820;SDS011;68171;13.882;99.692;2023-07-20T01:17:08;9.60;;;4.32;;
78820;SDS011;68171;13.882;99.692;2023-07-20T01:18:17;8.38;;;4.47;;
78820;SDS011;68171;13.882;99.692;2023-07-20T01:19:24;13.10;;;4.68;;
78820;SDS011;68171;13.882;99.692;2023-07-20T01:20:34;11.02;;;3.90;;
78820;SDS011;68171;13.882;99.692;2023-07-20T01:21:48;9.18;;;4.38;;
78820;SDS011;68171;13.882;99.692;2023-07-20T01:23:07;11.45;;;4.30;;
78820;SDS011;68171;13.882;99.692;2023-07-20T01:26:16;11.00;;;4.75;;
78820;SDS011;68171;13.882;99.692;2023-07-20T01:29:41;12.27;;;5.18;;
78820;SDS011;68171;13.882;99.692;2023-07-20T01:30:59;12.23;;;4.90;;
78820;SDS011;68171;13.882;99.692;2023-07-20T01:32:27;10.10;;;4.82;;
78820;SDS011;68171;13.882;99.692;2023-07-20T01:33:37;6.57;;;3.40;;
78820;SDS011;68171;13.882;99.692;2023-07-20T01:34:47;10.07;;;3.35;;
78820;SDS011;68171;13.882;99.692;2023-07-20T01:36:04;6.15;;;2.80;;
78820;SDS011;68171;13.882;99.692;2023-07-20T01:37:11;10.38;;;3.67;;
78820;SDS011;68171;13.882;99.692;2023-07-20T01:38:20;9.32;;;3.55;;
78820;SDS011;68171;13.882;99.692;2023-07-20T01:39:33;8.10;;;3.38;;
78820;SDS011;68171;13.882;99.692;2023-07-20T01:40:47;5.50;;;3.20;;
78820;SDS011;68171;13.882;99.692;2023-07-20T01:41:57;9.60;;;3.03;;
78820;SDS011;68171;13.882;99.692;2023-07-20T01:43:06;6.68;;;3.30;;
78820;SDS011;68171;13.882;99.692;2023-07-20T01:44:25;15.55;;;4.35;;
78820;SDS011;68171;13.882;99.692;2023-07-20T01:45:33;9.30;;;4.30;;
78820;SDS011;68171;13.882;99.692;2023-07-20T01:46:43;11.10;;;4.38;;
78820;SDS011;68171;13.882;99.692;2023-07-20T01:49:21;7.25;;;3.70;;
78820;SDS011;68171;13.882;99.692;2023-07-20T01:50:29;8.43;;;4.07;;
78820;SDS011;68171;13.882;99.692;2023-07-20T01:51:37;8.90;;;3.88;;
78820;SDS011;68171;13.882;99.692;2023-07-20T01:52:53;8.43;;;3.07;;
78820;SDS011;68171;13.882;99.692;2023-07-20T01:54:02;6.60;;;2.80;;
78820;SDS011;68171;13.882;99.692;2023-07-20T01:55:10;7.03;;;2.92;;
78820;SDS011;68171;13.882;99.692;2023-07-20T01:56:21;5.35;;;3.00;;
78820;SDS011;68171;13.882;99.692;2023-07-20T01:57:44;8.32;;;3.03;;
78820;SDS011;68171;13.882;99.692;2023-07-20T01:58:54;5.65;;;2.60;;
78820;SDS011;68171;13.882;99.692;2023-07-20T02:00:06;5.60;;;2.75;;
78820;SDS011;68171;13.882;99.692;2023-07-20T02:01:24;6.10;;;2.38;;
78820;SDS011;68171;13.882;99.692;2023-07-20T02:02:32;5.95;;;2.47;;
78820;SDS011;68171;13.882;99.692;2023-07-20T02:03:41;5.53;;;2.20;;
78820;SDS011;68171;13.882;99.692;2023-07-20T02:04:52;8.73;;;3.03;;
78820;SDS011;68171;13.882;99.692;2023-07-20T02:06:15;5.40;;;2.92;;
78820;SDS011;68171;13.882;99.692;2023-07-20T02:07:25;9.48;;;3.33;;
78820;SDS011;68171;13.882;99.692;2023-07-20T02:08:30;10.02;;;4.07;;
78820;SDS011;68171;13.882;99.692;2023-07-20T02:09:45;10.82;;;4.35;;
78820;SDS011;68171;13.882;99.692;2023-07-20T02:11:02;9.55;;;4.03;;
78820;SDS011;68171;13.882;99.692;2023-07-20T02:12:13;8.27;;;3.45;;
78820;SDS011;68171;13.882;99.692;2023-07-20T02:13:23;7.45;;;2.40;;
78820;SDS011;68171;13.882;99.692;2023-07-20T02:14:33;4.35;;;2.00;;
78820;SDS011;68171;13.882;99.692;2023-07-20T02:15:44;5.32;;;2.05;;
78820;SDS011;68171;13.882;99.692;2023-07-20T02:17:18;4.50;;;2.13;;
78820;SDS011;68171;13.882;99.692;2023-07-20T02:18:40;6.90;;;2.20;;
78820;SDS011;68171;13.882;99.692;2023-07-20T02:19:53;6.70;;;2.47;;
78820;SDS011;68171;13.882;99.692;2023-07-20T02:21:06;6.18;;;2.33;;
78820;SDS011;68171;13.882;99.692;2023-07-20T02:22:12;5.95;;;3.00;;
78820;SDS011;68171;13.882;99.692;2023-07-20T02:23:33;9.65;;;3.63;;
78820;SDS011;68171;13.882;99.692;2023-07-20T02:24:50;8.90;;;3.70;;
78820;SDS011;68171;13.882;99.692;2023-07-20T02:26:00;7.43;;;2.88;;
78820;SDS011;68171;13.882;99.692;2023-07-20T02:27:17;7.15;;;2.90;;
78820;SDS011;68171;13.882;99.692;2023-07-20T02:28:23;6.30;;;2.67;;
78820;SDS011;68171;13.882;99.692;2023-07-20T02:29:33;5.83;;;2.50;;
78820;SDS011;68171;13.882;99.692;2023-07-20T02:30:39;7.00;;;2.75;;
78820;SDS011;68171;13.882;99.692;2023-07-20T02:31:58;5.43;;;2.63;;
78820;SDS011;68171;13.882;99.692;2023-07-20T02:33:03;6.45;;;2.75;;
78820;SDS011;68171;13.882;99.692;2023-07-20T02:34:15;7.90;;;2.83;;
78820;SDS011;68171;13.882;99.692;2023-07-20T02:35:23;7.07;;;2.83;;
78820;SDS011;68171;13.882;99.692;2023-07-20T02:36:45;8.00;;;3.22;;
78820;SDS011;68171;13.882;99.692;2023-07-20T02:37:51;6.13;;;2.92;;
78820;SDS011;68171;13.882;99.692;2023-07-20T02:39:13;5.72;;;2.65;;
78820;SDS011;68171;13.882;99.692;2023-07-20T02:40:19;5.75;;;3.00;;
78820;SDS011;68171;13.882;99.692;2023-07-20T02:41:29;5.20;;;2.90;;
78820;SDS011;68171;13.882;99.692;2023-07-20T02:42:39;7.55;;;2.95;;
78820;SDS011;68171;13.882;99.692;2023-07-20T02:43:56;7.85;;;3.17;;
78820;SDS011;68171;13.882;99.692;2023-07-20T02:45:03;6.80;;;3.15;;
78820;SDS011;68171;13.882;99.692;2023-07-20T02:46:28;9.50;;;3.45;;
78820;SDS011;68171;13.882;99.692;2023-07-20T02:47:46;7.28;;;3.00;;
78820;SDS011;68171;13.882;99.692;2023-07-20T02:48:55;6.65;;;2.80;;
78820;SDS011;68171;13.882;99.692;2023-07-20T02:50:12;6.85;;;2.90;;
78820;SDS011;68171;13.882;99.692;2023-07-20T02:51:20;6.72;;;2.63;;
78820;SDS011;68171;13.882;99.692;2023-07-20T02:52:34;9.70;;;2.80;;
78820;SDS011;68171;13.882;99.692;2023-07-20T02:53:45;9.33;;;2.90;;
78820;SDS011;68171;13.882;99.692;2023-07-20T02:54:56;8.23;;;3.38;;
78820;SDS011;68171;13.882;99.692;2023-07-20T02:56:08;5.82;;;2.90;;
78820;SDS011;68171;13.882;99.692;2023-07-20T02:57:16;10.65;;;3.00;;
78820;SDS011;68171;13.882;99.692;2023-07-20T02:58:29;6.60;;;3.00;;
78820;SDS011;68171;13.882;99.692;2023-07-20T02:59:34;6.88;;;3.65;;
78820;SDS011;68171;13.882;99.692;2023-07-20T03:00:42;9.07;;;2.90;;
78820;SDS011;68171;13.882;99.692;2023-07-20T03:01:58;5.78;;;3.08;;
78820;SDS011;68171;13.882;99.692;2023-07-20T03:03:08;10.43;;;2.97;;
78820;SDS011;68171;13.882;99.692;2023-07-20T03:04:15;7.32;;;2.92;;
78820;SDS011;68171;13.882;99.692;2023-07-20T03:05:25;6.80;;;2.40;;
78820;SDS011;68171;13.882;99.692;2023-07-20T03:06:34;6.50;;;2.95;;
78820;SDS011;68171;13.882;99.692;2023-07-20T03:07:48;7.53;;;2.72;;
78820;SDS011;68171;13.882;99.692;2023-07-20T03:08:54;5.10;;;2.47;;
78820;SDS011;68171;13.882;99.692;2023-07-20T03:10:10;6.28;;;3.05;;
78820;SDS011;68171;13.882;99.692;2023-07-20T03:11:19;6.97;;;2.70;;
78820;SDS011;68171;13.882;99.692;2023-07-20T03:12:29;6.43;;;2.85;;
78820;SDS011;68171;13.882;99.692;2023-07-20T03:13:38;5.90;;;2.60;;
78820;SDS011;68171;13.882;99.692;2023-07-20T03:14:48;9.60;;;3.22;;
78820;SDS011;68171;13.882;99.692;2023-07-20T03:15:57;7.35;;;3.00;;
78820;SDS011;68171;13.882;99.692;2023-07-20T03:17:15;8.93;;;2.80;;
78820;SDS011;68171;13.882;99.692;2023-07-20T03:18:25;8.18;;;3.15;;
78820;SDS011;68171;13.882;99.692;2023-07-20T03:19:45;9.10;;;3.42;;
78820;SDS011;68171;13.882;99.692;2023-07-20T03:21:00;8.95;;;3.50;;
78820;SDS011;68171;13.882;99.692;2023-07-20T03:22:08;10.35;;;3.20;;
78820;SDS011;68171;13.882;99.692;2023-07-20T03:23:15;9.32;;;3.55;;
78820;SDS011;68171;13.882;99.692;2023-07-20T03:24:20;12.00;;;4.00;;
78820;SDS011;68171;13.882;99.692;2023-07-20T03:25:32;10.57;;;4.10;;
78820;SDS011;68171;13.882;99.692;2023-07-20T03:26:40;9.88;;;4.10;;
78820;SDS011;68171;13.882;99.692;2023-07-20T03:27:47;7.72;;;3.80;;
78820;SDS011;68171;13.882;99.692;2023-07-20T03:28:55;14.30;;;3.90;;
78820;SDS011;68171;13.882;99.692;2023-07-20T03:30:14;7.10;;;3.25;;
78820;SDS011;68171;13.882;99.692;2023-07-20T03:31:37;7.68;;;3.45;;
78820;SDS011;68171;13.882;99.692;2023-07-20T03:32:46;12.05;;;4.10;;
78820;SDS011;68171;13.882;99.692;2023-07-20T03:33:54;10.15;;;4.30;;
78820;SDS011;68171;13.882;99.692;2023-07-20T03:35:04;6.80;;;3.50;;
78820;SDS011;68171;13.882;99.692;2023-07-20T03:36:11;7.10;;;3.13;;
78820;SDS011;68171;13.882;99.692;2023-07-20T03:37:18;10.48;;;3.30;;
78820;SDS011;68171;13.882;99.692;2023-07-20T03:38:29;7.07;;;2.88;;
78820;SDS011;68171;13.882;99.692;2023-07-20T03:39:39;5.22;;;3.10;;
78820;SDS011;68171;13.882;99.692;2023-07-20T03:40:56;11.47;;;3.47;;
78820;SDS011;68171;13.882;99.692;2023-07-20T03:42:08;9.88;;;4.18;;
78820;SDS011;68171;13.882;99.692;2023-07-20T03:43:19;7.60;;;3.72;;
78820;SDS011;68171;13.882;99.692;2023-07-20T03:44:31;10.30;;;3.58;;
78820;SDS011;68171;13.882;99.692;2023-07-20T03:45:37;9.38;;;3.70;;
78820;SDS011;68171;13.882;99.692;2023-07-20T03:46:59;7.88;;;3.50;;
78820;SDS011;68171;13.882;99.692;2023-07-20T03:48:09;6.97;;;3.10;;
78820;SDS011;68171;13.882;99.692;2023-07-20T03:49:30;10.07;;;3.45;;
78820;SDS011;68171;13.882;99.692;2023-07-20T03:50:42;8.05;;;3.22;;
78820;SDS011;68171;13.882;99.692;2023-07-20T03:52:09;9.88;;;3.10;;
78820;SDS011;68171;13.882;99.692;2023-07-20T03:53:29;7.87;;;3.10;;
78820;SDS011;68171;13.882;99.692;2023-07-20T03:54:39;7.03;;;2.97;;
78820;SDS011;68171;13.882;99.692;2023-07-20T03:55:51;9.27;;;4.13;;
78820;SDS011;68171;13.882;99.692;2023-07-20T03:56:57;10.65;;;6.00;;
78820;SDS011;68171;13.882;99.692;2023-07-20T03:58:04;11.40;;;5.13;;
78820;SDS011;68171;13.882;99.692;2023-07-20T03:59:14;6.97;;;3.13;;
78820;SDS011;68171;13.882;99.692;2023-07-20T04:00:26;8.20;;;3.30;;
78820;SDS011;68171;13.882;99.692;2023-07-20T04:01:54;7.75;;;3.22;;
78820;SDS011;68171;13.882;99.692;2023-07-20T04:03:11;8.40;;;2.95;;
78820;SDS011;68171;13.882;99.692;2023-07-20T04:04:25;7.35;;;2.92;;
78820;SDS011;68171;13.882;99.692;2023-07-20T04:05:31;8.23;;;3.53;;
78820;SDS011;68171;13.882;99.692;2023-07-20T04:06:39;9.83;;;3.80;;
78820;SDS011;68171;13.882;99.692;2023-07-20T04:07:49;9.20;;;4.50;;
78820;SDS011;68171;13.882;99.692;2023-07-20T04:09:00;7.60;;;3.58;;
78820;SDS011;68171;13.882;99.692;2023-07-20T04:10:08;9.45;;;3.70;;
78820;SDS011;68171;13.882;99.692;2023-07-20T04:11:21;10.98;;;4.20;;
78820;SDS011;68171;13.882;99.692;2023-07-20T04:12:28;9.10;;;3.55;;
78820;SDS011;68171;13.882;99.692;2023-07-20T04:13:59;6.90;;;3.47;;
78820;SDS011;68171;13.882;99.692;2023-07-20T04:15:14;8.52;;;3.05;;
78820;SDS011;68171;13.882;99.692;2023-07-20T04:16:23;9.85;;;3.40;;
78820;SDS011;68171;13.882;99.692;2023-07-20T04:17:38;9.67;;;3.20;;
78820;SDS011;68171;13.882;99.692;2023-07-20T04:18:51;7.87;;;3.23;;
78820;SDS011;68171;13.882;99.692;2023-07-20T04:19:56;11.40;;;3.53;;
78820;SDS011;68171;13.882;99.692;2023-07-20T04:21:08;8.40;;;3.30;;
78820;SDS011;68171;13.882;99.692;2023-07-20T04:22:16;10.82;;;3.53;;
78820;SDS011;68171;13.882;99.692;2023-07-20T04:23:41;8.60;;;3.17;;
78820;SDS011;68171;13.882;99.692;2023-07-20T04:24:57;7.18;;;2.80;;
78820;SDS011;68171;13.882;99.692;2023-07-20T04:26:02;9.35;;;3.40;;
78820;SDS011;68171;13.882;99.692;2023-07-20T04:27:12;10.85;;;3.35;;
78820;SDS011;68171;13.882;99.692;2023-07-20T04:28:18;8.93;;;2.90;;
78820;SDS011;68171;13.882;99.692;2023-07-20T04:29:25;8.70;;;3.17;;
78820;SDS011;68171;13.882;99.692;2023-07-20T04:30:39;7.23;;;2.60;;
78820;SDS011;68171;13.882;99.692;2023-07-20T04:31:48;11.63;;;3.45;;
78820;SDS011;68171;13.882;99.692;2023-07-20T04:33:01;8.63;;;3.10;;
78820;SDS011;68171;13.882;99.692;2023-07-20T04:34:08;6.63;;;3.00;;
78820;SDS011;68171;13.882;99.692;2023-07-20T04:35:26;8.27;;;3.30;;
78820;SDS011;68171;13.882;99.692;2023-07-20T04:36:54;7.20;;;3.50;;
78820;SDS011;68171;13.882;99.692;2023-07-20T04:38:04;8.48;;;3.50;;
78820;SDS011;68171;13.882;99.692;2023-07-20T04:39:13;6.43;;;3.35;;
78820;SDS011;68171;13.882;99.692;2023-07-20T04:40:40;9.13;;;3.33;;
78820;SDS011;68171;13.882;99.692;2023-07-20T04:41:47;7.63;;;2.97;;
78820;SDS011;68171;13.882;99.692;2023-07-20T04:42:54;6.90;;;2.60;;
78820;SDS011;68171;13.882;99.692;2023-07-20T04:44:15;8.48;;;3.03;;
78820;SDS011;68171;13.882;99.692;2023-07-20T04:45:23;6.28;;;2.85;;
78820;SDS011;68171;13.882;99.692;2023-07-20T04:46:33;6.68;;;3.13;;
78820;SDS011;68171;13.882;99.692;2023-07-20T04:47:46;8.93;;;3.38;;
78820;SDS011;68171;13.882;99.692;2023-07-20T04:48:59;6.00;;;2.53;;
78820;SDS011;68171;13.882;99.692;2023-07-20T04:50:11;5.78;;;3.13;;
78820;SDS011;68171;13.882;99.692;2023-07-20T04:51:19;9.05;;;2.90;;
78820;SDS011;68171;13.882;99.692;2023-07-20T04:52:39;10.02;;;3.20;;
78820;SDS011;68171;13.882;99.692;2023-07-20T04:53:53;10.13;;;3.30;;
78820;SDS011;68171;13.882;99.692;2023-07-20T04:56:35;7.38;;;2.97;;
78820;SDS011;68171;13.882;99.692;2023-07-20T04:57:43;7.40;;;3.00;;
78820;SDS011;68171;13.882;99.692;2023-07-20T04:58:59;8.57;;;3.20;;
78820;SDS011;68171;13.882;99.692;2023-07-20T05:00:05;9.95;;;3.55;;
78820;SDS011;68171;13.882;99.692;2023-07-20T05:01:16;9.57;;;3.40;;
78820;SDS011;68171;13.882;99.692;2023-07-20T05:02:24;6.03;;;3.17;;
78820;SDS011;68171;13.882;99.692;2023-07-20T05:03:36;7.82;;;3.35;;
78820;SDS011;68171;13.882;99.692;2023-07-20T05:04:45;9.25;;;4.32;;
78820;SDS011;68171;13.882;99.692;2023-07-20T05:06:10;9.00;;;4.27;;
78820;SDS011;68171;13.882;99.692;2023-07-20T05:07:18;9.63;;;4.83;;
78820;SDS011;68171;13.882;99.692;2023-07-20T05:08:29;12.27;;;4.78;;
78820;SDS011;68171;13.882;99.692;2023-07-20T05:09:56;11.82;;;4.85;;
78820;SDS011;68171;13.882;99.692;2023-07-20T05:11:12;11.02;;;4.43;;
78820;SDS011;68171;13.882;99.692;2023-07-20T05:12:25;11.32;;;4.45;;
78820;SDS011;68171;13.882;99.692;2023-07-20T05:13:45;9.07;;;3.83;;
78820;SDS011;68171;13.882;99.692;2023-07-20T05:14:55;12.52;;;4.60;;
78820;SDS011;68171;13.882;99.692;2023-07-20T05:16:00;11.95;;;4.75;;
78820;SDS011;68171;13.882;99.692;2023-07-20T05:17:10;12.18;;;4.18;;
78820;SDS011;68171;13.882;99.692;2023-07-20T05:18:17;10.67;;;4.40;;
78820;SDS011;68171;13.882;99.692;2023-07-20T05:19:44;8.93;;;4.00;;
78820;SDS011;68171;13.882;99.692;2023-07-20T05:20:55;10.43;;;3.75;;
78820;SDS011;68171;13.882;99.692;2023-07-20T05:22:00;14.32;;;6.03;;
78820;SDS011;68171;13.882;99.692;2023-07-20T05:23:21;14.85;;;6.00;;
78820;SDS011;68171;13.882;99.692;2023-07-20T05:24:27;14.90;;;5.60;;
78820;SDS011;68171;13.882;99.692;2023-07-20T05:25:39;9.90;;;4.90;;
78820;SDS011;68171;13.882;99.692;2023-07-20T05:26:54;13.07;;;5.30;;
78820;SDS011;68171;13.882;99.692;2023-07-20T05:28:06;13.00;;;4.75;;
78820;SDS011;68171;13.882;99.692;2023-07-20T05:29:12;12.70;;;5.60;;
78820;SDS011;68171;13.882;99.692;2023-07-20T05:30:19;13.37;;;5.60;;
78820;SDS011;68171;13.882;99.692;2023-07-20T05:31:29;14.40;;;5.30;;
78820;SDS011;68171;13.882;99.692;2023-07-20T05:32:55;8.07;;;3.88;;
78820;SDS011;68171;13.882;99.692;2023-07-20T05:34:03;8.73;;;4.28;;
78820;SDS011;68171;13.882;99.692;2023-07-20T05:35:21;9.50;;;4.05;;
78820;SDS011;68171;13.882;99.692;2023-07-20T05:36:27;11.20;;;4.60;;
78820;SDS011;68171;13.882;99.692;2023-07-20T05:37:37;10.05;;;4.25;;
78820;SDS011;68171;13.882;99.692;2023-07-20T05:38:43;9.43;;;4.20;;
78820;SDS011;68171;13.882;99.692;2023-07-20T05:39:54;9.52;;;3.80;;
78820;SDS011;68171;13.882;99.692;2023-07-20T05:41:07;7.65;;;3.70;;
78820;SDS011;68171;13.882;99.692;2023-07-20T05:42:22;7.73;;;3.90;;
78820;SDS011;68171;13.882;99.692;2023-07-20T05:43:28;9.73;;;4.20;;
78820;SDS011;68171;13.882;99.692;2023-07-20T05:44:38;14.70;;;4.25;;
78820;SDS011;68171;13.882;99.692;2023-07-20T05:45:46;6.88;;;3.67;;
78820;SDS011;68171;13.882;99.692;2023-07-20T05:46:53;11.00;;;3.88;;
78820;SDS011;68171;13.882;99.692;2023-07-20T05:47:59;7.93;;;3.00;;
78820;SDS011;68171;13.882;99.692;2023-07-20T05:49:09;8.80;;;3.50;;
78820;SDS011;68171;13.882;99.692;2023-07-20T05:50:24;8.82;;;3.30;;
78820;SDS011;68171;13.882;99.692;2023-07-20T05:51:34;5.57;;;2.80;;
78820;SDS011;68171;13.882;99.692;2023-07-20T05:52:45;7.90;;;3.10;;
78820;SDS011;68171;13.882;99.692;2023-07-20T05:53:52;5.43;;;2.90;;
78820;SDS011;68171;13.882;99.692;2023-07-20T05:55:06;7.40;;;2.40;;
78820;SDS011;68171;13.882;99.692;2023-07-20T05:56:19;5.10;;;2.50;;
78820;SDS011;68171;13.882;99.692;2023-07-20T05:57:29;7.88;;;2.72;;
78820;SDS011;68171;13.882;99.692;2023-07-20T05:58:36;6.25;;;2.50;;
78820;SDS011;68171;13.882;99.692;2023-07-20T05:59:42;6.40;;;2.65;;
78820;SDS011;68171;13.882;99.692;2023-07-20T06:01:00;5.82;;;2.38;;
78820;SDS011;68171;13.882;99.692;2023-07-20T06:02:15;4.85;;;2.20;;
78820;SDS011;68171;13.882;99.692;2023-07-20T06:03:22;6.47;;;2.67;;
78820;SDS011;68171;13.882;99.692;2023-07-20T06:04:28;6.20;;;2.72;;
78820;SDS011;68171;13.882;99.692;2023-07-20T06:05:35;4.87;;;2.30;;
78820;SDS011;68171;13.882;99.692;2023-07-20T06:06:40;9.73;;;3.13;;
78820;SDS011;68171;13.882;99.692;2023-07-20T06:07:53;6.47;;;2.95;;
78820;SDS011;68171;13.882;99.692;2023-07-20T06:09:01;4.57;;;2.60;;
78820;SDS011;68171;13.882;99.692;2023-07-20T06:10:13;5.85;;;2.92;;
78820;SDS011;68171;13.882;99.692;2023-07-20T06:11:28;6.72;;;2.95;;
78820;SDS011;68171;13.882;99.692;2023-07-20T06:12:39;6.68;;;2.63;;
78820;SDS011;68171;13.882;99.692;2023-07-20T06:13:52;5.82;;;2.92;;
78820;SDS011;68171;13.882;99.692;2023-07-20T06:15:02;6.75;;;3.70;;
78820;SDS011;68171;13.882;99.692;2023-07-20T06:16:08;7.32;;;3.83;;
78820;SDS011;68171;13.882;99.692;2023-07-20T06:17:23;8.50;;;3.40;;
78820;SDS011;68171;13.882;99.692;2023-07-20T06:18:29;7.37;;;3.50;;
78820;SDS011;68171;13.882;99.692;2023-07-20T06:19:39;8.52;;;3.95;;
78820;SDS011;68171;13.882;99.692;2023-07-20T06:20:53;9.57;;;3.10;;
78820;SDS011;68171;13.882;99.692;2023-07-20T06:21:59;8.10;;;3.85;;
78820;SDS011;68171;13.882;99.692;2023-07-20T06:23:05;7.53;;;3.25;;
78820;SDS011;68171;13.882;99.692;2023-07-20T06:24:12;7.15;;;3.30;;
78820;SDS011;68171;13.882;99.692;2023-07-20T06:25:19;8.70;;;3.17;;
78820;SDS011;68171;13.882;99.692;2023-07-20T06:26:29;6.45;;;3.40;;
78820;SDS011;68171;13.882;99.692;2023-07-20T06:27:34;6.68;;;3.13;;
78820;SDS011;68171;13.882;99.692;2023-07-20T06:28:43;8.13;;;2.80;;
78820;SDS011;68171;13.882;99.692;2023-07-20T06:29:54;6.63;;;3.10;;
78820;SDS011;68171;13.882;99.692;2023-07-20T06:31:01;7.47;;;3.58;;
78820;SDS011;68171;13.882;99.692;2023-07-20T06:32:08;5.88;;;2.97;;
78820;SDS011;68171;13.882;99.692;2023-07-20T06:33:15;5.95;;;2.97;;
78820;SDS011;68171;13.882;99.692;2023-07-20T06:34:24;5.18;;;2.63;;
78820;SDS011;68171;13.882;99.692;2023-07-20T06:35:31;6.85;;;3.10;;
78820;SDS011;68171;13.882;99.692;2023-07-20T06:36:40;7.20;;;3.42;;
78820;SDS011;68171;13.882;99.692;2023-07-20T06:37:46;5.95;;;3.00;;
78820;SDS011;68171;13.882;99.692;2023-07-20T06:38:55;7.53;;;3.17;;
78820;SDS011;68171;13.882;99.692;2023-07-20T06:40:05;4.67;;;2.50;;
78820;SDS011;68171;13.882;99.692;2023-07-20T06:41:15;5.07;;;2.47;;
78820;SDS011;68171;13.882;99.692;2023-07-20T06:42:25;5.93;;;2.80;;
78820;SDS011;68171;13.882;99.692;2023-07-20T06:43:35;5.60;;;2.85;;
78820;SDS011;68171;13.882;99.692;2023-07-20T06:44:47;10.00;;;3.30;;
78820;SDS011;68171;13.882;99.692;2023-07-20T06:45:53;7.53;;;3.10;;
78820;SDS011;68171;13.882;99.692;2023-07-20T06:47:02;6.18;;;2.78;;
78820;SDS011;68171;13.882;99.692;2023-07-20T06:48:08;6.95;;;3.20;;
78820;SDS011;68171;13.882;99.692;2023-07-20T06:49:24;9.90;;;3.22;;
78820;SDS011;68171;13.882;99.692;2023-07-20T06:50:32;6.90;;;3.00;;
78820;SDS011;68171;13.882;99.692;2023-07-20T06:51:39;6.83;;;2.87;;
78820;SDS011;68171;13.882;99.692;2023-07-20T06:52:45;8.13;;;2.77;;
78820;SDS011;68171;13.882;99.692;2023-07-20T06:53:56;8.60;;;3.00;;
78820;SDS011;68171;13.882;99.692;2023-07-20T06:55:02;8.00;;;3.10;;
78820;SDS011;68171;13.882;99.692;2023-07-20T06:56:10;6.85;;;3.20;;
78820;SDS011;68171;13.882;99.692;2023-07-20T06:57:18;9.35;;;3.75;;
78820;SDS011;68171;13.882;99.692;2023-07-20T06:58:27;18.35;;;10.50;;
78820;SDS011;68171;13.882;99.692;2023-07-20T06:59:35;14.73;;;6.00;;
78820;SDS011;68171;13.882;99.692;2023-07-20T07:00:45;9.63;;;4.93;;
78820;SDS011;68171;13.882;99.692;2023-07-20T07:01:55;10.80;;;5.00;;
78820;SDS011;68171;13.882;99.692;2023-07-20T07:03:04;13.03;;;4.60;;
78820;SDS011;68171;13.882;99.692;2023-07-20T07:04:14;10.17;;;4.60;;
78820;SDS011;68171;13.882;99.692;2023-07-20T07:05:24;8.35;;;4.28;;
78820;SDS011;68171;13.882;99.692;2023-07-20T07:06:38;10.32;;;5.05;;
78820;SDS011;68171;13.882;99.692;2023-07-20T07:07:48;12.65;;;4.88;;
78820;SDS011;68171;13.882;99.692;2023-07-20T07:08:53;9.85;;;5.53;;
78820;SDS011;68171;13.882;99.692;2023-07-20T07:10:01;10.40;;;5.40;;
78820;SDS011;68171;13.882;99.692;2023-07-20T07:11:12;9.70;;;5.35;;